sensor_id;sensor_type;location;lat;lon;timestamp;temperature;humidity
4366;DHT22;2196;47.422;9.656;2023-04-03T00:11:02;7.40;99.90
4366;DHT22;2196;47.422;9.656;2023-04-03T00:13:30;7.40;99.90
4366;DHT22;2196;47.422;9.656;2023-04-03T00:15:57;7.40;99.90
4366;DHT22;2196;47.422;9.656;2023-04-03T00:18:24;7.40;99.90
4366;DHT22;2196;47.422;9.656;2023-04-03T00:24:13;7.30;99.90
4366;DHT22;2196;47.422;9.656;2023-04-03T00:26:41;7.30;99.90
4366;DHT22;2196;47.422;9.656;2023-04-03T00:29:08;7.20;99.90
4366;DHT22;2196;47.422;9.656;2023-04-03T00:31:35;7.20;99.90
4366;DHT22;2196;47.422;9.656;2023-04-03T00:34:02;7.30;99.90
4366;DHT22;2196;47.422;9.656;2023-04-03T00:36:29;7.20;99.90
4366;DHT22;2196;47.422;9.656;2023-04-03T00:38:56;7.10;99.90
4366;DHT22;2196;47.422;9.656;2023-04-03T00:41:23;7.20;99.90
4366;DHT22;2196;47.422;9.656;2023-04-03T00:43:52;7.20;99.90
4366;DHT22;2196;47.422;9.656;2023-04-03T00:46:19;7.20;99.90
4366;DHT22;2196;47.422;9.656;2023-04-03T00:48:47;7.20;99.90
4366;DHT22;2196;47.422;9.656;2023-04-03T00:51:19;7.20;99.90
4366;DHT22;2196;47.422;9.656;2023-04-03T00:53:48;7.30;99.90
4366;DHT22;2196;47.422;9.656;2023-04-03T00:56:17;7.10;99.90
4366;DHT22;2196;47.422;9.656;2023-04-03T00:58:47;7.10;99.90
4366;DHT22;2196;47.422;9.656;2023-04-03T01:01:20;7.00;99.90
4366;DHT22;2196;47.422;9.656;2023-04-03T01:03:48;6.70;99.90
4366;DHT22;2196;47.422;9.656;2023-04-03T01:06:17;6.60;99.90
4366;DHT22;2196;47.422;9.656;2023-04-03T01:08:45;6.60;99.90
4366;DHT22;2196;47.422;9.656;2023-04-03T01:11:13;6.60;99.90
4366;DHT22;2196;47.422;9.656;2023-04-03T01:13:40;6.50;99.90
4366;DHT22;2196;47.422;9.656;2023-04-03T01:16:08;6.50;99.90
4366;DHT22;2196;47.422;9.656;2023-04-03T01:18:38;6.40;99.90
4366;DHT22;2196;47.422;9.656;2023-04-03T01:21:29;6.40;99.90
4366;DHT22;2196;47.422;9.656;2023-04-03T01:24:11;6.50;99.90
4366;DHT22;2196;47.422;9.656;2023-04-03T01:26:39;6.50;99.90
4366;DHT22;2196;47.422;9.656;2023-04-03T01:29:06;6.50;99.90
4366;DHT22;2196;47.422;9.656;2023-04-03T03:46:18;4.40;99.90
4366;DHT22;2196;47.422;9.656;2023-04-03T03:48:45;4.40;99.90
4366;DHT22;2196;47.422;9.656;2023-04-03T03:51:12;4.40;99.90
4366;DHT22;2196;47.422;9.656;2023-04-03T03:53:39;4.40;99.90
4366;DHT22;2196;47.422;9.656;2023-04-03T03:56:06;4.30;99.90
4366;DHT22;2196;47.422;9.656;2023-04-03T03:58:33;4.30;99.90
4366;DHT22;2196;47.422;9.656;2023-04-03T04:01:01;4.30;99.90
4366;DHT22;2196;47.422;9.656;2023-04-03T04:03:30;4.30;99.90
4366;DHT22;2196;47.422;9.656;2023-04-03T12:40:00;8.30;99.90
4366;DHT22;2196;47.422;9.656;2023-04-03T12:43:05;8.50;99.90
4366;DHT22;2196;47.422;9.656;2023-04-03T12:45:41;8.60;99.90
4366;DHT22;2196;47.422;9.656;2023-04-03T12:48:15;8.50;99.90
4366;DHT22;2196;47.422;9.656;2023-04-03T12:50:44;8.30;99.90
4366;DHT22;2196;47.422;9.656;2023-04-03T12:53:14;8.30;99.90
4366;DHT22;2196;47.422;9.656;2023-04-03T12:55:44;8.30;99.90
4366;DHT22;2196;47.422;9.656;2023-04-03T12:58:16;8.40;99.90
4366;DHT22;2196;47.422;9.656;2023-04-03T13:00:43;8.40;99.90
4366;DHT22;2196;47.422;9.656;2023-04-03T13:03:22;8.50;99.90
4366;DHT22;2196;47.422;9.656;2023-04-03T13:06:00;8.60;99.90
4366;DHT22;2196;47.422;9.656;2023-04-03T13:08:29;8.40;99.90
4366;DHT22;2196;47.422;9.656;2023-04-03T13:11:00;8.50;99.90
4366;DHT22;2196;47.422;9.656;2023-04-03T13:13:28;8.40;99.90
4366;DHT22;2196;47.422;9.656;2023-04-03T13:15:56;8.30;99.90
4366;DHT22;2196;47.422;9.656;2023-04-03T13:18:29;8.40;99.90
4366;DHT22;2196;47.422;9.656;2023-04-03T13:21:01;8.30;99.90
4366;DHT22;2196;47.422;9.656;2023-04-03T13:23:30;8.30;99.90
4366;DHT22;2196;47.422;9.656;2023-04-03T13:25:59;8.50;99.90
4366;DHT22;2196;47.422;9.656;2023-04-03T13:28:30;8.50;99.90
4366;DHT22;2196;47.422;9.656;2023-04-03T13:31:03;8.60;99.90
4366;DHT22;2196;47.422;9.656;2023-04-03T13:33:33;8.60;99.90
4366;DHT22;2196;47.422;9.656;2023-04-03T13:36:05;8.60;99.90
4366;DHT22;2196;47.422;9.656;2023-04-03T13:38:33;8.60;99.90
4366;DHT22;2196;47.422;9.656;2023-04-03T13:41:05;8.60;99.90
4366;DHT22;2196;47.422;9.656;2023-04-03T13:43:35;8.60;99.90
4366;DHT22;2196;47.422;9.656;2023-04-03T13:46:05;8.60;99.90
4366;DHT22;2196;47.422;9.656;2023-04-03T13:48:38;8.50;99.90
4366;DHT22;2196;47.422;9.656;2023-04-03T13:51:16;8.20;99.90
4366;DHT22;2196;47.422;9.656;2023-04-03T13:53:46;8.20;99.90
4366;DHT22;2196;47.422;9.656;2023-04-03T13:56:22;8.10;99.90
4366;DHT22;2196;47.422;9.656;2023-04-03T13:59:06;8.20;99.90
4366;DHT22;2196;47.422;9.656;2023-04-03T14:01:48;8.10;99.90
4366;DHT22;2196;47.422;9.656;2023-04-03T14:04:20;8.10;99.90
4366;DHT22;2196;47.422;9.656;2023-04-03T14:06:48;8.00;99.90
4366;DHT22;2196;47.422;9.656;2023-04-03T14:09:16;8.00;99.90
4366;DHT22;2196;47.422;9.656;2023-04-03T14:11:46;8.10;99.90
4366;DHT22;2196;47.422;9.656;2023-04-03T14:14:16;8.00;99.90
4366;DHT22;2196;47.422;9.656;2023-04-03T14:16:46;8.10;99.90
4366;DHT22;2196;47.422;9.656;2023-04-03T14:19:20;8.20;99.90
4366;DHT22;2196;47.422;9.656;2023-04-03T14:21:48;8.20;99.90
4366;DHT22;2196;47.422;9.656;2023-04-03T14:24:16;8.00;99.90
4366;DHT22;2196;47.422;9.656;2023-04-03T14:26:46;8.10;99.90
4366;DHT22;2196;47.422;9.656;2023-04-03T14:29:13;8.10;99.90
4366;DHT22;2196;47.422;9.656;2023-04-03T14:31:43;8.00;99.90
4366;DHT22;2196;47.422;9.656;2023-04-03T14:34:11;8.00;99.90
4366;DHT22;2196;47.422;9.656;2023-04-03T14:36:38;8.10;99.90
4366;DHT22;2196;47.422;9.656;2023-04-03T14:39:07;8.00;99.90
4366;DHT22;2196;47.422;9.656;2023-04-03T14:41:34;7.80;99.90
4366;DHT22;2196;47.422;9.656;2023-04-03T14:44:03;7.90;99.90
4366;DHT22;2196;47.422;9.656;2023-04-03T14:46:32;8.00;99.90
4366;DHT22;2196;47.422;9.656;2023-04-03T14:48:59;7.80;99.90
4366;DHT22;2196;47.422;9.656;2023-04-03T14:51:26;7.90;99.90
4366;DHT22;2196;47.422;9.656;2023-04-03T14:53:53;8.00;99.90
4366;DHT22;2196;47.422;9.656;2023-04-03T14:56:23;8.00;99.90
4366;DHT22;2196;47.422;9.656;2023-04-03T14:58:55;8.00;99.90
4366;DHT22;2196;47.422;9.656;2023-04-03T15:01:24;8.10;99.90
4366;DHT22;2196;47.422;9.656;2023-04-03T15:03:51;8.10;99.90
4366;DHT22;2196;47.422;9.656;2023-04-03T15:06:19;8.10;99.90
4366;DHT22;2196;47.422;9.656;2023-04-03T15:08:47;8.00;99.90
4366;DHT22;2196;47.422;9.656;2023-04-03T15:11:15;8.00;99.90
4366;DHT22;2196;47.422;9.656;2023-04-03T15:13:42;7.90;99.90
4366;DHT22;2196;47.422;9.656;2023-04-03T15:16:15;8.00;99.90
4366;DHT22;2196;47.422;9.656;2023-04-03T15:18:45;7.90;99.90
4366;DHT22;2196;47.422;9.656;2023-04-03T15:21:13;7.90;99.90
4366;DHT22;2196;47.422;9.656;2023-04-03T15:23:40;7.90;99.90
4366;DHT22;2196;47.422;9.656;2023-04-03T15:26:08;7.90;99.90
4366;DHT22;2196;47.422;9.656;2023-04-03T15:28:37;7.90;99.90
4366;DHT22;2196;47.422;9.656;2023-04-03T15:31:05;7.80;99.90
4366;DHT22;2196;47.422;9.656;2023-04-03T15:33:32;7.70;99.90
4366;DHT22;2196;47.422;9.656;2023-04-03T15:36:01;7.70;99.90
4366;DHT22;2196;47.422;9.656;2023-04-03T15:38:28;7.70;99.90
4366;DHT22;2196;47.422;9.656;2023-04-03T15:40:55;7.70;99.90
4366;DHT22;2196;47.422;9.656;2023-04-03T15:43:22;7.70;99.90
4366;DHT22;2196;47.422;9.656;2023-04-03T15:45:49;7.60;99.90
4366;DHT22;2196;47.422;9.656;2023-04-03T15:48:17;7.60;99.90
4366;DHT22;2196;47.422;9.656;2023-04-03T15:50:45;7.60;99.90
4366;DHT22;2196;47.422;9.656;2023-04-03T15:53:13;7.60;99.90
4366;DHT22;2196;47.422;9.656;2023-04-03T15:55:40;7.60;99.90
4366;DHT22;2196;47.422;9.656;2023-04-03T15:58:07;7.50;99.90
4366;DHT22;2196;47.422;9.656;2023-04-03T16:00:35;7.50;99.90
4366;DHT22;2196;47.422;9.656;2023-04-03T16:03:07;7.50;99.90
4366;DHT22;2196;47.422;9.656;2023-04-03T16:05:35;7.40;99.90
4366;DHT22;2196;47.422;9.656;2023-04-03T16:08:04;7.20;99.90
4366;DHT22;2196;47.422;9.656;2023-04-03T16:10:34;7.30;99.90
4366;DHT22;2196;47.422;9.656;2023-04-03T16:13:02;7.30;99.90
4366;DHT22;2196;47.422;9.656;2023-04-03T16:15:29;7.30;99.90
4366;DHT22;2196;47.422;9.656;2023-04-03T16:17:57;7.30;99.90
4366;DHT22;2196;47.422;9.656;2023-04-03T16:20:25;7.20;99.90
4366;DHT22;2196;47.422;9.656;2023-04-03T16:22:53;7.20;99.90
4366;DHT22;2196;47.422;9.656;2023-04-03T16:25:20;7.10;99.90
4366;DHT22;2196;47.422;9.656;2023-04-03T16:27:49;7.20;99.90
4366;DHT22;2196;47.422;9.656;2023-04-03T16:30:16;7.10;99.90
4366;DHT22;2196;47.422;9.656;2023-04-03T16:32:43;7.00;99.90
4366;DHT22;2196;47.422;9.656;2023-04-03T16:35:10;6.90;99.90
4366;DHT22;2196;47.422;9.656;2023-04-03T16:37:38;6.80;99.90
4366;DHT22;2196;47.422;9.656;2023-04-03T16:40:09;6.80;99.90
4366;DHT22;2196;47.422;9.656;2023-04-03T16:42:37;6.80;99.90
4366;DHT22;2196;47.422;9.656;2023-04-03T16:45:10;6.80;99.90
4366;DHT22;2196;47.422;9.656;2023-04-03T16:47:37;6.70;99.90
4366;DHT22;2196;47.422;9.656;2023-04-03T16:50:04;6.70;99.90
4366;DHT22;2196;47.422;9.656;2023-04-03T16:52:31;6.60;99.90
4366;DHT22;2196;47.422;9.656;2023-04-03T16:54:58;6.50;99.90
4366;DHT22;2196;47.422;9.656;2023-04-03T16:57:25;6.50;99.90
4366;DHT22;2196;47.422;9.656;2023-04-03T16:59:53;6.50;99.90
4366;DHT22;2196;47.422;9.656;2023-04-03T17:02:23;6.50;99.90
4366;DHT22;2196;47.422;9.656;2023-04-03T17:04:51;6.40;99.90
4366;DHT22;2196;47.422;9.656;2023-04-03T17:07:18;6.30;99.90
4366;DHT22;2196;47.422;9.656;2023-04-03T17:09:45;6.30;99.90
4366;DHT22;2196;47.422;9.656;2023-04-03T17:12:12;6.30;99.90
4366;DHT22;2196;47.422;9.656;2023-04-03T17:14:40;6.30;99.90
4366;DHT22;2196;47.422;9.656;2023-04-03T17:17:07;6.40;99.90
4366;DHT22;2196;47.422;9.656;2023-04-03T17:19:37;6.40;99.90
4366;DHT22;2196;47.422;9.656;2023-04-03T17:22:04;6.40;99.90
4366;DHT22;2196;47.422;9.656;2023-04-03T17:24:31;6.30;99.90
4366;DHT22;2196;47.422;9.656;2023-04-03T17:26:59;6.30;99.90
4366;DHT22;2196;47.422;9.656;2023-04-03T17:29:26;6.30;99.90
4366;DHT22;2196;47.422;9.656;2023-04-03T17:31:53;6.30;99.90
4366;DHT22;2196;47.422;9.656;2023-04-03T17:34:20;6.30;99.90
4366;DHT22;2196;47.422;9.656;2023-04-03T17:36:48;6.10;99.90
4366;DHT22;2196;47.422;9.656;2023-04-03T17:39:15;6.00;99.90
4366;DHT22;2196;47.422;9.656;2023-04-03T17:41:42;6.00;99.90
4366;DHT22;2196;47.422;9.656;2023-04-03T17:44:10;6.00;99.90
4366;DHT22;2196;47.422;9.656;2023-04-03T17:46:37;6.10;99.90
4366;DHT22;2196;47.422;9.656;2023-04-03T17:49:04;6.10;99.90
4366;DHT22;2196;47.422;9.656;2023-04-03T17:51:31;6.00;99.90
4366;DHT22;2196;47.422;9.656;2023-04-03T17:54:00;6.00;99.90
4366;DHT22;2196;47.422;9.656;2023-04-03T17:56:27;6.00;99.90
4366;DHT22;2196;47.422;9.656;2023-04-03T17:58:55;6.00;99.90
4366;DHT22;2196;47.422;9.656;2023-04-03T18:01:25;6.00;99.90
4366;DHT22;2196;47.422;9.656;2023-04-03T18:03:54;6.00;99.90
4366;DHT22;2196;47.422;9.656;2023-04-03T18:06:24;5.90;99.90
4366;DHT22;2196;47.422;9.656;2023-04-03T18:08:54;5.90;99.90
4366;DHT22;2196;47.422;9.656;2023-04-03T18:11:26;5.80;99.90
4366;DHT22;2196;47.422;9.656;2023-04-03T18:13:56;5.70;99.90
4366;DHT22;2196;47.422;9.656;2023-04-03T18:16:23;5.70;99.90
4366;DHT22;2196;47.422;9.656;2023-04-03T18:18:50;5.70;99.90
4366;DHT22;2196;47.422;9.656;2023-04-03T18:21:17;5.70;99.90
4366;DHT22;2196;47.422;9.656;2023-04-03T18:23:48;5.70;99.90
4366;DHT22;2196;47.422;9.656;2023-04-03T18:26:16;5.70;99.90
4366;DHT22;2196;47.422;9.656;2023-04-03T18:28:48;5.60;99.90
4366;DHT22;2196;47.422;9.656;2023-04-03T18:31:17;5.60;99.90
4366;DHT22;2196;47.422;9.656;2023-04-03T18:33:45;5.60;99.90
4366;DHT22;2196;47.422;9.656;2023-04-03T18:36:12;5.60;99.90
4366;DHT22;2196;47.422;9.656;2023-04-03T18:38:39;5.60;99.90
4366;DHT22;2196;47.422;9.656;2023-04-03T18:41:07;5.50;99.90
4366;DHT22;2196;47.422;9.656;2023-04-03T18:43:35;5.50;99.90
4366;DHT22;2196;47.422;9.656;2023-04-03T18:46:04;5.50;99.90
4366;DHT22;2196;47.422;9.656;2023-04-03T18:48:32;5.50;99.90
4366;DHT22;2196;47.422;9.656;2023-04-03T18:50:59;5.40;99.90
4366;DHT22;2196;47.422;9.656;2023-04-03T18:53:27;5.40;99.90
4366;DHT22;2196;47.422;9.656;2023-04-03T18:55:54;5.40;99.90
4366;DHT22;2196;47.422;9.656;2023-04-03T18:58:21;5.30;99.90
4366;DHT22;2196;47.422;9.656;2023-04-03T19:00:48;5.40;99.90
4366;DHT22;2196;47.422;9.656;2023-04-03T19:03:16;5.30;99.90
4366;DHT22;2196;47.422;9.656;2023-04-03T19:05:43;5.30;99.90
4366;DHT22;2196;47.422;9.656;2023-04-03T19:08:10;5.30;99.90
4366;DHT22;2196;47.422;9.656;2023-04-03T19:10:37;5.30;99.90
4366;DHT22;2196;47.422;9.656;2023-04-03T19:13:04;5.30;99.90
4366;DHT22;2196;47.422;9.656;2023-04-03T19:15:32;5.30;99.90
4366;DHT22;2196;47.422;9.656;2023-04-03T19:17:59;5.30;99.90
4366;DHT22;2196;47.422;9.656;2023-04-03T19:20:27;5.30;99.90
4366;DHT22;2196;47.422;9.656;2023-04-03T19:22:54;5.20;99.90
4366;DHT22;2196;47.422;9.656;2023-04-03T19:25:21;5.30;99.90
4366;DHT22;2196;47.422;9.656;2023-04-03T19:27:48;5.20;99.90
4366;DHT22;2196;47.422;9.656;2023-04-03T19:30:16;5.20;99.90
4366;DHT22;2196;47.422;9.656;2023-04-03T19:32:43;5.20;99.90
4366;DHT22;2196;47.422;9.656;2023-04-03T19:35:10;5.30;99.90
4366;DHT22;2196;47.422;9.656;2023-04-03T19:37:39;5.20;99.90
4366;DHT22;2196;47.422;9.656;2023-04-03T19:40:08;5.20;99.90
4366;DHT22;2196;47.422;9.656;2023-04-03T19:42:36;5.30;99.90
4366;DHT22;2196;47.422;9.656;2023-04-03T19:45:09;5.20;99.90
4366;DHT22;2196;47.422;9.656;2023-04-03T19:47:36;5.20;99.90
4366;DHT22;2196;47.422;9.656;2023-04-03T19:50:04;5.10;99.90
4366;DHT22;2196;47.422;9.656;2023-04-03T19:52:31;4.90;99.90
4366;DHT22;2196;47.422;9.656;2023-04-03T19:55:00;4.90;99.90
4366;DHT22;2196;47.422;9.656;2023-04-03T19:57:27;4.90;99.90
4366;DHT22;2196;47.422;9.656;2023-04-03T19:59:54;4.80;99.90
4366;DHT22;2196;47.422;9.656;2023-04-03T20:02:21;4.80;99.90
4366;DHT22;2196;47.422;9.656;2023-04-03T20:04:48;4.80;99.90
4366;DHT22;2196;47.422;9.656;2023-04-03T20:07:15;4.80;99.90
4366;DHT22;2196;47.422;9.656;2023-04-03T20:09:42;4.70;99.90
4366;DHT22;2196;47.422;9.656;2023-04-03T20:12:11;4.70;99.90
4366;DHT22;2196;47.422;9.656;2023-04-03T20:14:37;4.60;99.90
4366;DHT22;2196;47.422;9.656;2023-04-03T20:17:05;4.60;99.90
4366;DHT22;2196;47.422;9.656;2023-04-03T20:19:33;4.60;99.90
4366;DHT22;2196;47.422;9.656;2023-04-03T20:22:00;4.60;99.90
4366;DHT22;2196;47.422;9.656;2023-04-03T20:24:27;4.50;99.90
4366;DHT22;2196;47.422;9.656;2023-04-03T20:26:54;4.60;99.90
4366;DHT22;2196;47.422;9.656;2023-04-03T20:29:24;4.60;99.90
4366;DHT22;2196;47.422;9.656;2023-04-03T20:31:51;4.50;99.90
4366;DHT22;2196;47.422;9.656;2023-04-03T20:34:19;4.50;99.90
4366;DHT22;2196;47.422;9.656;2023-04-03T20:36:46;4.50;99.90
4366;DHT22;2196;47.422;9.656;2023-04-03T20:39:13;4.50;99.90
4366;DHT22;2196;47.422;9.656;2023-04-03T20:41:41;4.50;99.90
4366;DHT22;2196;47.422;9.656;2023-04-03T20:44:08;4.40;99.90
4366;DHT22;2196;47.422;9.656;2023-04-03T20:46:36;4.30;99.90
4366;DHT22;2196;47.422;9.656;2023-04-03T20:49:03;4.30;99.90
4366;DHT22;2196;47.422;9.656;2023-04-03T20:51:30;4.30;99.90
4366;DHT22;2196;47.422;9.656;2023-04-03T20:53:57;4.20;99.90
4366;DHT22;2196;47.422;9.656;2023-04-03T20:56:28;4.20;99.90
4366;DHT22;2196;47.422;9.656;2023-04-03T20:58:57;4.20;99.90
4366;DHT22;2196;47.422;9.656;2023-04-03T21:01:26;4.20;99.90
4366;DHT22;2196;47.422;9.656;2023-04-03T21:03:58;4.20;99.90
4366;DHT22;2196;47.422;9.656;2023-04-03T21:20:54;3.90;99.90
4366;DHT22;2196;47.422;9.656;2023-04-03T21:23:21;3.80;99.90
4366;DHT22;2196;47.422;9.656;2023-04-03T21:25:49;3.80;99.90
4366;DHT22;2196;47.422;9.656;2023-04-03T21:28:16;3.80;99.90
4366;DHT22;2196;47.422;9.656;2023-04-03T21:30:44;3.80;99.90
4366;DHT22;2196;47.422;9.656;2023-04-03T21:33:11;3.70;99.90
4366;DHT22;2196;47.422;9.656;2023-04-03T21:35:39;3.70;99.90
4366;DHT22;2196;47.422;9.656;2023-04-03T21:38:06;3.70;99.90
4366;DHT22;2196;47.422;9.656;2023-04-03T21:40:33;3.60;99.90
4366;DHT22;2196;47.422;9.656;2023-04-03T21:43:00;3.60;99.90
4366;DHT22;2196;47.422;9.656;2023-04-03T21:45:29;3.60;99.90
4366;DHT22;2196;47.422;9.656;2023-04-03T21:47:56;3.60;99.90
4366;DHT22;2196;47.422;9.656;2023-04-03T21:50:24;3.50;99.90
4366;DHT22;2196;47.422;9.656;2023-04-03T21:52:53;3.40;99.90
4366;DHT22;2196;47.422;9.656;2023-04-03T21:55:21;3.40;99.90
4366;DHT22;2196;47.422;9.656;2023-04-03T21:57:50;3.50;99.90
4366;DHT22;2196;47.422;9.656;2023-04-03T22:00:19;3.50;99.90
4366;DHT22;2196;47.422;9.656;2023-04-03T22:02:47;3.40;99.90
4366;DHT22;2196;47.422;9.656;2023-04-03T22:05:14;3.40;99.90
4366;DHT22;2196;47.422;9.656;2023-04-03T22:07:43;3.30;99.90
4366;DHT22;2196;47.422;9.656;2023-04-03T22:10:14;3.30;99.90
4366;DHT22;2196;47.422;9.656;2023-04-03T22:12:41;3.30;99.90
4366;DHT22;2196;47.422;9.656;2023-04-03T22:15:09;3.30;99.90
4366;DHT22;2196;47.422;9.656;2023-04-03T22:17:36;3.30;99.90
4366;DHT22;2196;47.422;9.656;2023-04-03T22:20:07;3.30;99.90
4366;DHT22;2196;47.422;9.656;2023-04-03T22:22:35;3.30;99.90
4366;DHT22;2196;47.422;9.656;2023-04-03T22:25:02;3.30;99.90
4366;DHT22;2196;47.422;9.656;2023-04-03T22:27:31;3.30;99.90
4366;DHT22;2196;47.422;9.656;2023-04-03T22:29:59;3.20;99.90
4366;DHT22;2196;47.422;9.656;2023-04-03T22:32:26;3.30;99.90
4366;DHT22;2196;47.422;9.656;2023-04-03T22:34:53;3.30;99.90
4366;DHT22;2196;47.422;9.656;2023-04-03T22:37:20;3.20;99.90
4366;DHT22;2196;47.422;9.656;2023-04-03T22:39:47;3.10;99.90
4366;DHT22;2196;47.422;9.656;2023-04-03T22:42:14;3.10;99.90
4366;DHT22;2196;47.422;9.656;2023-04-03T22:44:42;3.10;99.90
4366;DHT22;2196;47.422;9.656;2023-04-03T22:47:09;3.00;99.90
4366;DHT22;2196;47.422;9.656;2023-04-03T22:49:37;3.10;99.90
4366;DHT22;2196;47.422;9.656;2023-04-03T22:52:04;3.10;99.90
4366;DHT22;2196;47.422;9.656;2023-04-03T22:54:31;3.10;99.90
4366;DHT22;2196;47.422;9.656;2023-04-03T22:56:58;3.10;99.90
4366;DHT22;2196;47.422;9.656;2023-04-03T22:59:25;3.10;99.90
4366;DHT22;2196;47.422;9.656;2023-04-03T23:01:53;3.10;99.90
4366;DHT22;2196;47.422;9.656;2023-04-03T23:04:20;3.00;99.90
4366;DHT22;2196;47.422;9.656;2023-04-03T23:06:47;3.00;99.90
4366;DHT22;2196;47.422;9.656;2023-04-03T23:09:14;2.90;99.90
4366;DHT22;2196;47.422;9.656;2023-04-03T23:11:41;2.90;99.90
4366;DHT22;2196;47.422;9.656;2023-04-03T23:14:08;2.90;99.90
4366;DHT22;2196;47.422;9.656;2023-04-03T23:16:35;2.90;99.90
4366;DHT22;2196;47.422;9.656;2023-04-03T23:19:03;2.90;99.90
4366;DHT22;2196;47.422;9.656;2023-04-03T23:21:31;2.90;99.90
4366;DHT22;2196;47.422;9.656;2023-04-03T23:23:58;3.00;99.90
4366;DHT22;2196;47.422;9.656;2023-04-03T23:26:25;2.90;99.90
4366;DHT22;2196;47.422;9.656;2023-04-03T23:28:52;2.90;99.90
4366;DHT22;2196;47.422;9.656;2023-04-03T23:31:19;2.90;99.90
4366;DHT22;2196;47.422;9.656;2023-04-03T23:33:47;2.80;99.90
4366;DHT22;2196;47.422;9.656;2023-04-03T23:36:15;2.80;99.90
4366;DHT22;2196;47.422;9.656;2023-04-03T23:38:42;2.90;99.90
4366;DHT22;2196;47.422;9.656;2023-04-03T23:41:09;2.80;99.90
4366;DHT22;2196;47.422;9.656;2023-04-03T23:43:37;2.70;99.90
4366;DHT22;2196;47.422;9.656;2023-04-03T23:46:06;2.70;99.90
4366;DHT22;2196;47.422;9.656;2023-04-03T23:48:33;2.70;99.90
4366;DHT22;2196;47.422;9.656;2023-04-03T23:50:59;2.70;99.90
4366;DHT22;2196;47.422;9.656;2023-04-03T23:53:28;2.60;99.90
4366;DHT22;2196;47.422;9.656;2023-04-03T23:55:55;2.50;99.90
4366;DHT22;2196;47.422;9.656;2023-04-03T23:58:22;2.60;99.90
